Flight Track Log - Related Links

Times and Time Zones

All times are in EDT time to prevent confusion due to time zone crossing. See the AWI4058 flight status page for this flight to view local times or setup timezone preferences in your user account.

Time Position Orientation Groundspeed Altitude Reporting Facility
EDT Latitude Longitude Course Direction KTS MPH feet Rate Location/Type
Wed 03:24:20 PM 38.8000 -90.4500 84° East 201 231 2,500  Level Gateway (St. Louis) TRACON
Wed 03:25:20 PM 38.8500 -90.4333 15° North 250 288 4,600 2,107 Climbing Gateway (St. Louis) TRACON
Wed 03:26:00 PM 38.7627 -89.7747 87° East  Level FlightAware Approximate
Wed 03:27:00 PM 38.7723 -89.6272 80° East  Level FlightAware Approximate
Wed 03:27:08 PM 38.8544 -90.2650 88° East 282 325 8,400  Level Kansas City Center
Wed 03:28:00 PM 38.7887 -89.4804 84° East  Level FlightAware Approximate
Wed 03:28:10 PM 38.8458 -90.1644 96° East 282 325 10,900  Level Kansas City Center
Wed 03:29:00 PM 38.7993 -89.3430 84° East  Level FlightAware Approximate
Wed 03:29:12 PM 38.8356 -90.0581 97° East 295 339 12,600  Level Kansas City Center
Wed 03:30:14 PM 38.8247 -89.9414 97° East 320 368 14,000 1,452 Climbing Kansas City Center
Wed 03:31:16 PM 38.8133 -89.8192 97° East 339 390 15,600 1,500 Climbing Kansas City Center
Wed 03:32:18 PM 38.8006 -89.6939 97° East 349 402 17,100 1,403 Climbing Kansas City Center
Wed 03:33:20 PM 38.7892 -89.5408 95° East 355 409 18,500 1,258 Climbing Kansas City Center
Wed 03:34:22 PM 38.8053 -89.4100 81° East 371 427 19,700 1,161 Climbing Kansas City Center
Wed 03:35:24 PM 38.8233 -89.2689 81° East 374 430 20,900 1,065 Climbing Kansas City Center
Wed 03:36:26 PM 38.8406 -89.1356 81° East 379 436 21,900 919 Climbing Kansas City Center
Wed 03:37:28 PM 38.8575 -88.9986 81° East 388 447 22,800 823 Climbing Kansas City Center
Wed 03:38:30 PM 38.8756 -88.8733 79° East 396 456 23,600 677 Climbing Kansas City Center
Wed 03:39:32 PM 38.8956 -88.7017 81° East 403 464 24,200 484 Climbing Kansas City Center
Wed 03:40:34 PM 38.9122 -88.5569 82° East 408 470 24,600 484 Climbing Kansas City Center
Wed 03:41:36 PM 38.9353 -88.4122 78° East 410 472 25,200 517 Climbing Kansas City Center
Wed 03:42:30 PM 38.9697 -88.2950 69° East 425 489 25,600 517 Climbing Indianapolis Center
Wed 03:43:32 PM 39.0017 -88.1136 77° East 430 495 26,200 532 Climbing Indianapolis Center
Wed 03:44:34 PM 39.0300 -87.9617 76° East 432 497 26,700 484 Climbing Indianapolis Center
Wed 03:45:36 PM 39.0581 -87.8100 77° East 434 499 27,200 581 Climbing Indianapolis Center
Wed 03:46:38 PM 39.0847 -87.6600 77° East 428 493 27,900 677 Climbing Indianapolis Center
Wed 03:47:40 PM 39.1122 -87.5106 77° East 427 491 28,600 677 Climbing Indianapolis Center
Wed 03:48:42 PM 39.1369 -87.3703 77° East 420 483 29,300 677 Climbing Indianapolis Center
Wed 03:49:44 PM 39.1678 -87.1969 77° East 417 480 30,000 532 Climbing Indianapolis Center
Wed 03:50:46 PM 39.1928 -87.0517 77° East 418 481 30,400 484 Climbing Indianapolis Center
Wed 03:51:48 PM 39.2183 -86.9072 77° East 417 480 31,000 532 Climbing Indianapolis Center
Wed 03:52:50 PM 39.2433 -86.7647 77° East 412 474 31,500 484 Climbing Indianapolis Center
Wed 03:53:52 PM 39.2669 -86.6231 78° East 409 471 32,000 242 Climbing Indianapolis Center
Wed 03:54:54 PM 39.2992 -86.4522 76° East 413 475 32,000  Level Indianapolis Center
Wed 03:55:56 PM 39.3531 -86.3194 62° Northeast 422 486 32,000 194 Level Indianapolis Center
Wed 03:56:58 PM 39.4078 -86.1869 62° Northeast 424 488 32,400 435 Climbing Indianapolis Center
Wed 03:58:00 PM 39.4611 -86.0564 62° Northeast 417 480 32,900 290 Climbing Indianapolis Center
Wed 03:59:02 PM 39.4961 -85.9169 72° East 421 484 33,000 48 Climbing Indianapolis Center
Wed 04:00:05 PM 39.5211 -85.7389 80° East 423 487 33,000  Level Indianapolis Center
Wed 04:01:07 PM 39.5417 -85.5889 80° East 427 491 33,000  Level Indianapolis Center
Wed 04:02:09 PM 39.5631 -85.4358 80° East 433 498 33,000  Level Indianapolis Center
Wed 04:03:11 PM 39.5831 -85.2825 80° East 434 499 33,000  Level Indianapolis Center
Wed 04:04:13 PM 39.6031 -85.1283 80° East 436 502 33,000  Level Indianapolis Center
Wed 04:05:15 PM 39.6289 -84.9425 80° East 438 504 33,000  Level Indianapolis Center
Wed 04:06:17 PM 39.6475 -84.7906 81° East 438 504 33,000  Level Indianapolis Center
Wed 04:07:19 PM 39.6683 -84.6319 80° East 442 509 33,000  Level Indianapolis Center
Wed 04:08:21 PM 39.6886 -84.4725 81° East 442 509 33,000  Level Indianapolis Center
Wed 04:09:23 PM 39.7083 -84.3144 81° East 443 510 33,000  Level Indianapolis Center
Wed 04:10:25 PM 39.7306 -84.1289 81° East 443 510 33,000  Level Indianapolis Center
Wed 04:11:27 PM 39.7492 -83.9692 81° East 442 509 33,000  Level Indianapolis Center
Wed 04:12:29 PM 39.7686 -83.8089 81° East 445 512 33,000  Level Indianapolis Center
Wed 04:13:31 PM 39.7869 -83.6500 81° East 444 511 33,000  Level Indianapolis Center
Wed 04:14:33 PM 39.8067 -83.4833 81° East 447 514 33,000  Level Indianapolis Center
Wed 04:15:36 PM 39.8272 -83.3106 81° East 449 517 33,000  Level Indianapolis Center
Wed 04:16:37 PM 39.8456 -83.1517 81° East 445 512 33,000 -32 Level Indianapolis Center
Wed 04:18:00 PM 39.8697 -82.9619 81° East  Level FlightAware Approximate
Wed 04:18:42 PM 39.8814 -82.8333 81° East 442 509 32,900  Level Indianapolis Center
Wed 04:19:44 PM 39.8981 -82.6742 82° East 439 505 33,000 48 Climbing Indianapolis Center
Wed 04:20:46 PM 39.9181 -82.4894 82° East 439 505 33,000  Level Indianapolis Center
Wed 04:21:48 PM 39.9356 -82.3314 82° East 438 504 33,000  Level Indianapolis Center
Wed 04:22:50 PM 39.9528 -82.1733 82° East 440 506 33,000  Level Indianapolis Center
Wed 04:23:52 PM 39.9692 -82.0144 82° East 440 506 33,000  Level Indianapolis Center
Wed 04:24:54 PM 39.9850 -81.8561 83° East 437 503 33,000  Level Indianapolis Center
Wed 04:25:56 PM 40.0014 -81.6867 83° East 437 503 33,000  Level Indianapolis Center
Wed 04:26:58 PM 40.0158 -81.5292 83° East 436 502 33,000  Level Indianapolis Center
Wed 04:28:00 PM 40.0319 -81.3719 82° East 435 501 33,000  Level Indianapolis Center
Wed 04:29:02 PM 40.0472 -81.2133 83° East 437 503 33,000  Level Indianapolis Center
Wed 04:30:04 PM 40.0619 -81.0569 83° East 434 499 33,000  Level Indianapolis Center
Wed 04:31:09 PM 40.0833 -80.8789 81° East 427 491 33,000  Level Cleveland Center
Wed 04:32:09 PM 40.0964 -80.7242 84° East 427 491 33,000  Level Cleveland Center
Wed 04:33:09 PM 40.1089 -80.5694 84° East 427 491 33,000  Level Cleveland Center
Wed 04:34:09 PM 40.1233 -80.4175 83° East 427 491 33,000  Level Cleveland Center
Wed 04:35:09 PM 40.1375 -80.2628 83° East 427 491 33,000  Level Cleveland Center
Wed 04:36:09 PM 40.1475 -80.0942 86° East 428 493 33,000  Level Cleveland Center
Wed 04:37:09 PM 40.1633 -79.9583 81° East 422 486 33,000  Level Cleveland Center
Wed 04:38:09 PM 40.1769 -79.8033 83° East 422 486 33,000  Level Cleveland Center
Wed 04:39:09 PM 40.1903 -79.6347 84° East 428 493 33,000  Level Cleveland Center
Wed 04:40:09 PM 40.2036 -79.4850 83° East 428 493 33,000  Level Cleveland Center
Wed 04:41:09 PM 40.2147 -79.3353 84° East 418 481 33,000  Level Cleveland Center
Wed 04:42:09 PM 40.2253 -79.1853 85° East 418 481 33,000  Level Cleveland Center
Wed 04:43:09 PM 40.2361 -79.0383 84° East 413 475 33,000  Level Cleveland Center
Wed 04:44:09 PM 40.2464 -78.8883 85° East 413 475 33,000  Level Cleveland Center
Wed 04:45:09 PM 40.2567 -78.7386 85° East 413 475 33,000  Level Cleveland Center
Wed 04:46:09 PM 40.2686 -78.5886 84° East 413 475 33,000 -950 Level Cleveland Center
Wed 04:47:09 PM 40.2803 -78.4331 84° East 413 475 31,100 -1,758 Descending Cleveland Center
Wed 04:49:00 PM 40.2838 -78.2551 87° East  Level FlightAware Approximate
Wed 04:50:42 PM 40.2572 -77.9275 90° East 388 447 25,000  Level New York Center
Wed 04:51:42 PM 40.2506 -77.7961 94° East 373 429 25,000  Level New York Center
Wed 04:52:43 PM 40.2503 -77.6572 90° East 373 429 25,000  Level New York Center
Wed 04:53:43 PM 40.2644 -77.5200 82° East 373 429 25,000 -458 Level New York Center
Wed 04:54:41 PM 40.2769 -77.3742 84° East 379 436 24,100 -1,220 Descending New York Center
Wed 04:55:41 PM 40.3050 -77.2408 75° East 390 449 22,600 -1,500 Descending New York Center
Wed 04:56:00 PM 40.3005 -77.2847 90° East  Level FlightAware Approximate
Wed 04:56:41 PM 40.3492 -77.1222 64° Northeast 372 428 21,100  Level New York Center
Wed 04:57:42 PM 40.3436 -76.9883 93° East 357 411 19,600 -1,488 Descending New York Center
Wed 04:58:42 PM 40.3192 -76.8608 104° East 353 406 18,100 -1,488 Descending New York Center
Wed 04:59:43 PM 40.3047 -76.7317 98° East 353 406 16,600 -1,450 Descending New York Center
Wed 05:00:42 PM 40.3047 -76.6092 90° East 353 406 15,200 -1,600 Descending New York Center
Wed 05:01:43 PM 40.2803 -76.5092 108° East 335 386 13,400 -1,700 Descending New York Center
Wed 05:02:42 PM 40.2467 -76.3867 110° East 329 379 11,800 -1,261 Descending New York Center
Wed 05:03:42 PM 40.2222 -76.2867 108° East 324 373 10,900 -893 Descending New York Center
Wed 05:04:43 PM 40.1903 -76.1672 109° East 324 373 10,000 -555 Descending New York Center
Wed 05:05:41 PM 40.1597 -76.0589 110° East 310 357 9,800 -857 Descending New York Center
Wed 05:06:42 PM 40.1703 -75.9619 82° East 274 315 8,300 -893 Descending New York Center
Wed 05:07:42 PM 40.1975 -75.8633 70° East 274 315 8,000 -400 Descending New York Center
Wed 05:08:42 PM 40.2142 -75.7642 78° East 274 315 7,500 -545 Descending New York Center
Wed 05:09:43 PM 40.2242 -75.6750 82° East 275 316 6,900 -966 Descending New York Center
Wed 05:10:40 PM 40.2364 -75.5781 81° East 275 316 5,600 -1,475 Descending New York Center
Wed 05:11:41 PM 40.2114 -75.4786 108° East 255 293 4,000 -793 Descending New York Center
Wed 05:12:41 PM 40.1811 -75.3978 116° Southeast 250 288 4,000  Level New York Center
Wed 05:13:42 PM 40.1533 -75.3117 113° Southeast 250 288 4,000  Level New York Center
Wed 05:14:42 PM 40.1097 -75.2489 132° Southeast 240 276 4,000  Level New York Center
Wed 05:15:43 PM 40.0567 -75.2239 160° South 208 239 4,000  Level New York Center
Wed 05:16:37 PM 40.0167 -75.2000 155° Southeast 199 229 4,000  Level Philadelphia TRACON
Wed 05:17:37 PM 39.9667 -75.1667 153° Southeast 194 223 4,000  Level Philadelphia TRACON

Login

Don't have an account? Register now (free) for customized features, flight alerts, and more!